Time;durP1;ratioP1;P1;durP2;ratioP2;P2;SDS_P1;SDS_P2;PMS_P1;PMS_P2;Temp;Humidity;BMP_temperature;BMP_pressure;BME280_temperature;BME280_humidity;BME280_pressure;Samples;Min_cycle;Max_cycle;Signal;HPM_P1;HPM_P2
2023/05/13 00:01:37;;;;;;;31.20;9.30;;;;;;;;;;5022717;28;20042;-76
2023/05/13 00:04:04;;;;;;;23.45;8.35;;;;;;;;;;5031563;28;20045;-75
2023/05/13 00:06:31;;;;;;;24.33;9.68;;;;;;;;;;5025202;28;20050;-74
2023/05/13 00:08:57;;;;;;;30.13;7.93;;;;;;;;;;5029444;28;20034;-75
2023/05/13 00:11:23;;;;;;;16.73;8.48;;;;;;;;;;5031558;28;20056;-74
2023/05/13 00:13:48;;;;;;;16.50;7.90;;;;;;;;;;5026440;28;20073;-75
2023/05/13 00:16:14;;;;;;;18.65;7.85;;;;;;;;;;5011341;28;20175;-74
2023/05/13 00:18:40;;;;;;;13.48;7.72;;;;;;;;;;5011545;28;20037;-74
2023/05/13 00:21:06;;;;;;;11.73;6.82;;;;;;;;;;5011383;28;20041;-76
2023/05/13 00:23:32;;;;;;;18.63;7.55;;;;;;;;;;5010952;28;20041;-75
2023/05/13 00:25:59;;;;;;;17.85;7.20;;;;;;;;;;5009890;28;20084;-73
2023/05/13 00:28:25;;;;;;;14.43;6.82;;;;;;;;;;5011195;28;20038;-74
2023/05/13 00:30:51;;;;;;;21.15;7.57;;;;;;;;;;5011940;28;20224;-73
2023/05/13 00:33:17;;;;;;;23.63;8.18;;;;;;;;;;5012494;28;20216;-74
2023/05/13 00:35:43;;;;;;;23.05;7.15;;;;;;;;;;4994979;28;20057;-73
2023/05/13 00:38:09;;;;;;;15.30;7.05;;;;;;;;;;5011654;28;20046;-73
2023/05/13 00:40:38;;;;;;;14.23;7.88;;;;;;;;;;4979477;28;20053;-74
2023/05/13 00:43:05;;;;;;;12.75;6.70;;;;;;;;;;5011504;28;20046;-74
2023/05/13 00:45:31;;;;;;;12.55;7.10;;;;;;;;;;5012462;28;20034;-75
2023/05/13 00:47:57;;;;;;;16.55;6.82;;;;;;;;;;5012552;28;20045;-75
2023/05/13 00:50:23;;;;;;;24.20;7.95;;;;;;;;;;5010327;28;20089;-73
2023/05/13 00:52:49;;;;;;;13.52;7.43;;;;;;;;;;5012320;28;20041;-75
2023/05/13 00:55:15;;;;;;;22.20;8.32;;;;;;;;;;5011328;28;20053;-74
2023/05/13 00:57:42;;;;;;;16.77;6.88;;;;;;;;;;5010946;28;20508;-74
2023/05/13 01:00:09;;;;;;;16.27;6.57;;;;;;;;;;5009309;28;20038;-73
2023/05/13 01:02:40;;;;;;;14.35;7.45;;;;;;;;;;5003736;28;20034;-74
2023/05/13 01:05:07;;;;;;;19.38;8.20;;;;;;;;;;4991140;28;20117;-76
2023/05/13 01:07:52;;;;;;;40.67;9.38;;;;;;;;;;5002699;28;20053;-73
2023/05/13 01:10:27;;;;;;;20.88;8.50;;;;;;;;;;5010436;28;20030;-73
2023/05/13 01:12:55;;;;;;;19.92;8.57;;;;;;;;;;4984871;28;20045;-73
2023/05/13 01:15:24;;;;;;;23.63;8.95;;;;;;;;;;4973194;28;20038;-75
2023/05/13 01:18:19;;;;;;;22.92;7.85;;;;;;;;;;4990061;28;20034;-74
2023/05/13 01:20:45;;;;;;;19.50;7.55;;;;;;;;;;4986234;28;20454;-75
2023/05/13 01:23:12;;;;;;;24.40;9.48;;;;;;;;;;4990366;28;20069;-75
2023/05/13 01:25:39;;;;;;;32.50;9.18;;;;;;;;;;4986694;28;20129;-75
2023/05/13 01:28:05;;;;;;;22.17;8.35;;;;;;;;;;4993392;28;20124;-75
2023/05/13 01:30:32;;;;;;;25.15;8.20;;;;;;;;;;5011061;28;20061;-74
2023/05/13 01:32:58;;;;;;;23.80;8.80;;;;;;;;;;4977587;28;20487;-73
2023/05/13 01:35:24;;;;;;;15.95;7.72;;;;;;;;;;5011732;28;20109;-75
2023/05/13 01:37:51;;;;;;;29.33;9.32;;;;;;;;;;4993270;28;20036;-74
2023/05/13 01:40:17;;;;;;;17.15;8.15;;;;;;;;;;4993725;28;20542;-73
2023/05/13 01:42:44;;;;;;;21.05;8.68;;;;;;;;;;5010023;28;20069;-74
2023/05/13 01:45:10;;;;;;;17.67;8.55;;;;;;;;;;5011163;28;20416;-74
2023/05/13 01:47:37;;;;;;;19.98;9.10;;;;;;;;;;5009626;28;20204;-74
2023/05/13 01:50:03;;;;;;;16.98;8.77;;;;;;;;;;4992220;28;20520;-75
2023/05/13 01:52:30;;;;;;;19.13;7.45;;;;;;;;;;4990085;28;20046;-74
2023/05/13 01:54:56;;;;;;;24.27;9.80;;;;;;;;;;4991369;28;20046;-73
2023/05/13 01:57:22;;;;;;;18.25;8.43;;;;;;;;;;4973687;28;20045;-75
2023/05/13 01:59:48;;;;;;;31.90;8.95;;;;;;;;;;5006923;28;20543;-73
2023/05/13 02:02:15;;;;;;;23.25;9.20;;;;;;;;;;4994473;28;20128;-74
2023/05/13 02:04:41;;;;;;;25.52;9.45;;;;;;;;;;4994264;28;20647;-75
2023/05/13 02:07:07;;;;;;;25.30;9.05;;;;;;;;;;4993137;28;20648;-73
2023/05/13 02:09:33;;;;;;;21.52;9.23;;;;;;;;;;4992773;28;20034;-72
2023/05/13 02:11:59;;;;;;;24.20;10.32;;;;;;;;;;4992498;28;20512;-73
2023/05/13 02:14:27;;;;;;;26.50;7.93;;;;;;;;;;4976159;28;20489;-73
2023/05/13 02:16:53;;;;;;;21.35;9.10;;;;;;;;;;4960363;28;20121;-74
2023/05/13 02:19:20;;;;;;;38.78;9.68;;;;;;;;;;4992488;28;20038;-72
2023/05/13 02:21:47;;;;;;;13.70;7.70;;;;;;;;;;4992401;28;20473;-73
2023/05/13 02:24:13;;;;;;;21.70;8.50;;;;;;;;;;4992610;28;20117;-74
2023/05/13 02:26:40;;;;;;;23.48;9.32;;;;;;;;;;4993561;28;20061;-74
2023/05/13 02:29:07;;;;;;;24.80;8.35;;;;;;;;;;4992976;28;20058;-74
2023/05/13 02:31:35;;;;;;;26.40;9.85;;;;;;;;;;4976349;28;20064;-74
2023/05/13 02:34:02;;;;;;;16.55;8.10;;;;;;;;;;4992707;28;20034;-74
2023/05/13 02:36:28;;;;;;;19.38;8.90;;;;;;;;;;4992480;28;20041;-75
2023/05/13 02:38:54;;;;;;;21.38;8.30;;;;;;;;;;4993213;28;20133;-75
2023/05/13 02:41:20;;;;;;;22.67;9.13;;;;;;;;;;4992182;28;20065;-74
2023/05/13 02:43:48;;;;;;;13.52;7.75;;;;;;;;;;4978478;28;20428;-73
2023/05/13 02:46:14;;;;;;;26.27;9.10;;;;;;;;;;4996146;28;20047;-74
2023/05/13 02:48:40;;;;;;;28.70;8.95;;;;;;;;;;4998712;28;20103;-74
2023/05/13 02:51:08;;;;;;;29.20;10.10;;;;;;;;;;5001038;28;20058;-74
2023/05/13 02:53:34;;;;;;;20.70;9.27;;;;;;;;;;4984464;28;20039;-73
2023/05/13 02:56:03;;;;;;;20.10;9.25;;;;;;;;;;4994631;28;20038;-73
2023/05/13 02:58:30;;;;;;;25.58;7.82;;;;;;;;;;4992867;28;20065;-73
2023/05/13 03:00:57;;;;;;;16.40;8.18;;;;;;;;;;4976010;28;20031;-74
2023/05/13 03:03:24;;;;;;;20.33;8.10;;;;;;;;;;4993158;28;20034;-74
2023/05/13 03:05:50;;;;;;;18.60;7.35;;;;;;;;;;4992813;28;20102;-73
2023/05/13 03:08:16;;;;;;;17.13;8.32;;;;;;;;;;4991984;28;20049;-73
2023/05/13 03:10:42;;;;;;;18.23;7.43;;;;;;;;;;4975112;28;20038;-74
2023/05/13 03:13:08;;;;;;;20.85;6.97;;;;;;;;;;4993038;28;20452;-73
2023/05/13 03:15:34;;;;;;;15.95;7.32;;;;;;;;;;4991368;28;20121;-73
2023/05/13 03:18:00;;;;;;;11.18;6.35;;;;;;;;;;4993334;28;20074;-74
2023/05/13 03:20:26;;;;;;;11.60;6.35;;;;;;;;;;4959380;28;20640;-74
2023/05/13 03:22:52;;;;;;;7.15;5.65;;;;;;;;;;4991976;28;20120;-74
2023/05/13 03:25:19;;;;;;;20.55;5.85;;;;;;;;;;4991836;28;20089;-73
2023/05/13 03:27:53;;;;;;;10.60;5.57;;;;;;;;;;4991548;28;20479;-74
2023/05/13 03:30:21;;;;;;;11.77;5.53;;;;;;;;;;4991213;28;20030;-74
2023/05/13 03:32:56;;;;;;;6.25;5.32;;;;;;;;;;4991300;28;20130;-74
2023/05/13 03:35:23;;;;;;;8.35;5.38;;;;;;;;;;4991539;28;20046;-74
2023/05/13 03:37:49;;;;;;;15.48;5.28;;;;;;;;;;4991908;28;20038;-75
2023/05/13 03:40:16;;;;;;;4.50;4.03;;;;;;;;;;4997871;28;20040;-76
2023/05/13 03:42:42;;;;;;;6.15;4.30;;;;;;;;;;4998965;28;20527;-74
2023/05/13 03:45:08;;;;;;;9.55;4.00;;;;;;;;;;5012579;28;20042;-74
2023/05/13 03:47:38;;;;;;;8.63;4.32;;;;;;;;;;5010671;28;20050;-74
2023/05/13 03:50:07;;;;;;;;;;;;;;;;;;4991494;28;20422;-73
2023/05/13 03:52:39;;;;;;;10.45;4.32;;;;;;;;;;4991073;28;19914;-73
2023/05/13 03:55:05;;;;;;;17.40;4.30;;;;;;;;;;5007425;28;20573;-75
2023/05/13 03:57:33;;;;;;;18.17;4.97;;;;;;;;;;4990471;28;20060;-74
2023/05/13 03:59:59;;;;;;;14.80;5.35;;;;;;;;;;4992164;28;20508;-73
2023/05/13 04:02:25;;;;;;;5.50;4.38;;;;;;;;;;5010008;28;20064;-73
2023/05/13 04:04:51;;;;;;;7.53;4.50;;;;;;;;;;5010290;28;20205;-74
2023/05/13 04:07:18;;;;;;;6.75;4.35;;;;;;;;;;5010094;28;20042;-74
2023/05/13 04:09:44;;;;;;;14.32;4.28;;;;;;;;;;5011245;28;20029;-74
2023/05/13 04:12:11;;;;;;;6.50;4.20;;;;;;;;;;4993721;28;20403;-74
2023/05/13 04:14:39;;;;;;;8.32;4.20;;;;;;;;;;5011042;28;20030;-74
2023/05/13 04:17:05;;;;;;;4.20;3.63;;;;;;;;;;5009832;28;20030;-73
2023/05/13 04:19:31;;;;;;;11.15;4.07;;;;;;;;;;4991303;28;20098;-76
2023/05/13 04:21:57;;;;;;;6.07;4.05;;;;;;;;;;4973517;28;20159;-74
2023/05/13 04:24:23;;;;;;;9.68;3.75;;;;;;;;;;4990268;28;20428;-74
2023/05/13 04:26:49;;;;;;;14.93;4.10;;;;;;;;;;4989970;28;20376;-74
2023/05/13 04:29:18;;;;;;;9.57;3.97;;;;;;;;;;4990236;28;20117;-73
2023/05/13 04:31:44;;;;;;;5.80;3.70;;;;;;;;;;4989938;28;20125;-73
2023/05/13 04:34:11;;;;;;;7.43;3.80;;;;;;;;;;4990465;28;20034;-73
2023/05/13 04:36:38;;;;;;;8.70;3.70;;;;;;;;;;4973454;28;20041;-73
2023/05/13 04:39:04;;;;;;;7.95;4.00;;;;;;;;;;4989943;28;20042;-74
2023/05/13 04:41:31;;;;;;;9.27;4.38;;;;;;;;;;4989610;28;20405;-75
2023/05/13 04:43:58;;;;;;;16.00;4.18;;;;;;;;;;4991626;28;20085;-75
2023/05/13 04:46:25;;;;;;;13.43;3.97;;;;;;;;;;4973621;28;20409;-75
2023/05/13 04:48:51;;;;;;;7.57;4.13;;;;;;;;;;4989751;28;20056;-74
2023/05/13 04:51:18;;;;;;;15.13;4.35;;;;;;;;;;4990021;28;20100;-76
2023/05/13 04:53:44;;;;;;;6.93;3.80;;;;;;;;;;4973584;28;20496;-76
2023/05/13 04:56:10;;;;;;;10.23;3.67;;;;;;;;;;4989831;28;20042;-77
2023/05/13 04:58:36;;;;;;;16.67;4.22;;;;;;;;;;4989608;28;20412;-76
2023/05/13 05:01:03;;;;;;;7.03;3.80;;;;;;;;;;4990967;28;20049;-77
2023/05/13 05:03:30;;;;;;;9.73;3.97;;;;;;;;;;4989815;28;20026;-76
2023/05/13 05:05:58;;;;;;;10.60;4.03;;;;;;;;;;4973543;28;20064;-76
2023/05/13 05:08:24;;;;;;;7.22;3.75;;;;;;;;;;4992067;28;20137;-74
2023/05/13 05:10:50;;;;;;;13.75;4.20;;;;;;;;;;5010589;28;20038;-74
2023/05/13 05:13:16;;;;;;;4.70;3.70;;;;;;;;;;4983992;28;20042;-76
2023/05/13 05:15:43;;;;;;;6.55;3.30;;;;;;;;;;4998229;28;20524;-76
2023/05/13 05:18:09;;;;;;;6.78;3.70;;;;;;;;;;4990339;28;20096;-75
2023/05/13 05:20:38;;;;;;;6.30;3.47;;;;;;;;;;4989525;28;20072;-76
2023/05/13 05:23:09;;;;;;;7.50;3.65;;;;;;;;;;4989890;28;20041;-75
2023/05/13 05:25:35;;;;;;;8.95;4.30;;;;;;;;;;4990709;28;20066;-76
2023/05/13 05:28:03;;;;;;;11.55;4.07;;;;;;;;;;4989616;28;20087;-76
2023/05/13 05:30:38;;;;;;;7.80;3.63;;;;;;;;;;4974051;28;20137;-76
2023/05/13 05:33:06;;;;;;;7.18;3.70;;;;;;;;;;4974655;28;20128;-75
2023/05/13 05:35:37;;;;;;;8.07;3.75;;;;;;;;;;4976415;28;20034;-77
2023/05/13 05:38:06;;;;;;;8.55;4.00;;;;;;;;;;5009904;28;20046;-77
2023/05/13 05:40:34;;;;;;;12.23;3.65;;;;;;;;;;4993142;28;20465;-77
2023/05/13 05:43:01;;;;;;;8.05;3.80;;;;;;;;;;4993128;28;20033;-77
2023/05/13 05:45:27;;;;;;;15.25;4.35;;;;;;;;;;4994254;28;20065;-75
2023/05/13 05:47:54;;;;;;;7.20;3.95;;;;;;;;;;5002753;28;20049;-77
2023/05/13 05:50:20;;;;;;;6.18;3.45;;;;;;;;;;5015872;28;20034;-77
2023/05/13 05:52:46;;;;;;;8.25;3.90;;;;;;;;;;5031961;28;20595;-76
2023/05/13 05:55:14;;;;;;;10.70;3.60;;;;;;;;;;5015745;28;20034;-76
2023/05/13 05:57:40;;;;;;;9.35;3.88;;;;;;;;;;5031622;28;20120;-78
2023/05/13 06:00:09;;;;;;;12.23;3.92;;;;;;;;;;5033136;28;20033;-74
2023/05/13 06:02:41;;;;;;;9.35;4.22;;;;;;;;;;5032840;28;20372;-78
2023/05/13 06:05:08;;;;;;;8.43;3.40;;;;;;;;;;4985995;28;20030;-76
2023/05/13 06:07:37;;;;;;;14.55;4.93;;;;;;;;;;5011446;28;20069;-79
2023/05/13 06:10:02;;;;;;;8.50;4.10;;;;;;;;;;5010057;28;20057;-77
2023/05/13 06:12:31;;;;;;;14.55;4.53;;;;;;;;;;5011417;28;20038;-77
2023/05/13 06:14:58;;;;;;;6.28;3.13;;;;;;;;;;5011853;28;20441;-76
2023/05/13 06:17:24;;;;;;;7.35;2.83;;;;;;;;;;5012597;28;20033;-78
2023/05/13 06:19:50;;;;;;;7.85;2.90;;;;;;;;;;5012009;28;20038;-75
2023/05/13 06:22:18;;;;;;;7.88;3.00;;;;;;;;;;5017924;28;20045;-79
2023/05/13 06:24:44;;;;;;;8.68;3.55;;;;;;;;;;5029441;28;20026;-79
2023/05/13 06:27:11;;;;;;;4.60;2.67;;;;;;;;;;5027226;28;20060;-79
2023/05/13 06:29:37;;;;;;;5.57;3.00;;;;;;;;;;5032382;28;20018;-80
2023/05/13 06:32:03;;;;;;;4.85;2.92;;;;;;;;;;5031505;28;20018;-80
2023/05/13 06:34:29;;;;;;;3.80;2.95;;;;;;;;;;5000260;28;20092;-80
2023/05/13 06:36:55;;;;;;;3.47;3.00;;;;;;;;;;5016481;28;20416;-79
2023/05/13 06:39:21;;;;;;;8.18;3.05;;;;;;;;;;5015233;28;20041;-79
2023/05/13 06:41:48;;;;;;;7.93;3.13;;;;;;;;;;5012633;28;20579;-79
2023/05/13 06:44:15;;;;;;;11.52;3.33;;;;;;;;;;4996552;28;20034;-79
2023/05/13 06:46:45;;;;;;;10.20;3.67;;;;;;;;;;5013476;28;20129;-79
2023/05/13 06:49:11;;;;;;;7.75;3.28;;;;;;;;;;4996783;28;20623;-79
2023/05/13 06:51:37;;;;;;;10.60;3.20;;;;;;;;;;5014045;28;20107;-80
2023/05/13 06:54:03;;;;;;;8.32;3.75;;;;;;;;;;4996284;28;20042;-81
2023/05/13 06:56:29;;;;;;;5.85;3.90;;;;;;;;;;5014592;28;20463;-80
2023/05/13 06:58:55;;;;;;;11.05;3.63;;;;;;;;;;5012938;28;20046;-80
2023/05/13 07:01:21;;;;;;;25.40;4.13;;;;;;;;;;5013158;28;20558;-79
2023/05/13 07:03:48;;;;;;;6.75;3.72;;;;;;;;;;5015012;28;20566;-79
2023/05/13 07:06:14;;;;;;;6.93;3.78;;;;;;;;;;5015780;28;20100;-80
2023/05/13 07:08:40;;;;;;;9.48;3.78;;;;;;;;;;5014158;28;20041;-80
2023/05/13 07:11:06;;;;;;;10.82;3.50;;;;;;;;;;5015181;28;20068;-79
2023/05/13 07:13:33;;;;;;;12.38;4.30;;;;;;;;;;5015762;28;20042;-79
2023/05/13 07:16:01;;;;;;;10.63;4.30;;;;;;;;;;5016092;28;20042;-81
2023/05/13 07:18:27;;;;;;;7.72;3.95;;;;;;;;;;5019493;28;20124;-80
2023/05/13 07:20:55;;;;;;;12.75;3.60;;;;;;;;;;5016718;28;20029;-80
2023/05/13 07:23:21;;;;;;;18.77;3.83;;;;;;;;;;5003200;28;20042;-81
2023/05/13 07:25:48;;;;;;;5.47;3.53;;;;;;;;;;5015328;28;20030;-80
2023/05/13 07:28:14;;;;;;;7.53;3.42;;;;;;;;;;4982557;28;20052;-81
2023/05/13 07:30:40;;;;;;;12.32;3.40;;;;;;;;;;5000346;28;20093;-80
2023/05/13 07:33:07;;;;;;;7.55;3.45;;;;;;;;;;5023052;28;20040;-75
2023/05/13 07:35:33;;;;;;;10.10;3.45;;;;;;;;;;5029948;28;20041;-77
2023/05/13 07:37:59;;;;;;;6.57;3.30;;;;;;;;;;5009704;28;20105;-78
2023/05/13 07:40:25;;;;;;;10.57;3.13;;;;;;;;;;5028032;28;20037;-78
2023/05/13 07:42:51;;;;;;;6.75;3.22;;;;;;;;;;5028496;28;20037;-79
2023/05/13 07:45:17;;;;;;;7.50;3.33;;;;;;;;;;5026526;28;20636;-78
2023/05/13 07:47:43;;;;;;;2.83;1.90;;;;;;;;;;4996887;28;20054;-79
2023/05/13 07:50:09;;;;;;;7.47;3.25;;;;;;;;;;5015958;28;20034;-78
2023/05/13 07:52:35;;;;;;;6.95;3.20;;;;;;;;;;5014827;28;20556;-78
2023/05/13 07:55:01;;;;;;;8.18;3.50;;;;;;;;;;5013572;28;20038;-79
2023/05/13 07:57:28;;;;;;;7.22;3.90;;;;;;;;;;5010659;28;20046;-78
2023/05/13 07:59:54;;;;;;;7.05;3.10;;;;;;;;;;5011844;28;20057;-78
2023/05/13 08:02:20;;;;;;;3.45;3.08;;;;;;;;;;5012050;28;20512;-80
2023/05/13 08:04:47;;;;;;;5.18;2.85;;;;;;;;;;5011154;28;20112;-78
2023/05/13 08:07:15;;;;;;;6.07;2.78;;;;;;;;;;5011919;28;20046;-78
2023/05/13 08:09:41;;;;;;;3.45;2.97;;;;;;;;;;5010757;28;20562;-78
2023/05/13 08:12:10;;;;;;;10.63;3.22;;;;;;;;;;5011102;28;20235;-78
2023/05/13 08:14:36;;;;;;;6.10;3.55;;;;;;;;;;5013381;28;20037;-79
2023/05/13 08:17:03;;;;;;;12.95;3.55;;;;;;;;;;5013949;28;20042;-79
2023/05/13 08:19:29;;;;;;;3.47;3.08;;;;;;;;;;4997584;28;20030;-80
2023/05/13 08:21:55;;;;;;;11.18;3.35;;;;;;;;;;5014714;28;20038;-80
2023/05/13 08:24:22;;;;;;;6.13;3.35;;;;;;;;;;5015028;28;20412;-77
2023/05/13 08:26:48;;;;;;;5.45;3.13;;;;;;;;;;5017629;28;20053;-77
2023/05/13 08:29:14;;;;;;;14.20;2.78;;;;;;;;;;5021572;28;20033;-78
2023/05/13 08:31:40;;;;;;;3.53;3.17;;;;;;;;;;5013436;28;20088;-77
2023/05/13 08:34:06;;;;;;;9.98;3.33;;;;;;;;;;5011716;28;20120;-77
2023/05/13 08:36:33;;;;;;;9.18;2.90;;;;;;;;;;5011549;28;20037;-78
2023/05/13 08:39:00;;;;;;;3.20;2.90;;;;;;;;;;5010956;28;20038;-77
2023/05/13 08:41:26;;;;;;;5.13;3.00;;;;;;;;;;5009714;28;20367;-78
2023/05/13 08:43:52;;;;;;;4.05;3.13;;;;;;;;;;5011143;28;20033;-77
2023/05/13 08:46:17;;;;;;;4.10;2.67;;;;;;;;;;5011101;28;20064;-77
2023/05/13 08:48:47;;;;;;;12.45;3.60;;;;;;;;;;5011231;28;20047;-77
2023/05/13 08:51:13;;;;;;;3.72;2.17;;;;;;;;;;5010995;28;20112;-76
2023/05/13 08:53:39;;;;;;;11.50;2.97;;;;;;;;;;5011051;28;20080;-78
2023/05/13 08:56:06;;;;;;;2.80;2.53;;;;;;;;;;5010715;28;20034;-78
2023/05/13 08:58:33;;;;;;;7.45;2.95;;;;;;;;;;5010743;28;20125;-77
2023/05/13 09:00:59;;;;;;;9.75;2.70;;;;;;;;;;5010533;28;20033;-77
2023/05/13 09:03:25;;;;;;;2.05;1.92;;;;;;;;;;5010648;28;20397;-76
2023/05/13 09:05:51;;;;;;;7.38;4.90;;;;;;;;;;5009452;28;20033;-76
2023/05/13 09:08:17;;;;;;;8.88;2.67;;;;;;;;;;5010665;28;20050;-78
2023/05/13 09:10:43;;;;;;;2.50;2.25;;;;;;;;;;5010719;28;20030;-77
2023/05/13 09:16:31;;;;;;;2.58;2.33;;;;;;;;;;5006703;28;20041;-77
2023/05/13 09:18:58;;;;;;;4.00;2.88;;;;;;;;;;5009388;28;20045;-75
2023/05/13 09:21:24;;;;;;;9.93;3.00;;;;;;;;;;5009309;28;20034;-77
2023/05/13 09:24:09;;;;;;;5.90;3.17;;;;;;;;;;5010661;28;20470;-77
2023/05/13 09:26:36;;;;;;;4.80;2.00;;;;;;;;;;5009117;28;20400;-78
2023/05/13 09:29:17;;;;;;;7.22;2.88;;;;;;;;;;5010637;28;20647;-76
2023/05/13 09:31:44;;;;;;;3.38;3.08;;;;;;;;;;4993225;28;20124;-77
2023/05/13 09:34:11;;;;;;;11.05;3.20;;;;;;;;;;5009371;28;20467;-76
2023/05/13 09:36:37;;;;;;;6.93;3.17;;;;;;;;;;4992797;28;20140;-77
2023/05/13 09:39:04;;;;;;;15.10;3.33;;;;;;;;;;5010789;28;20101;-78
2023/05/13 09:41:30;;;;;;;14.90;3.38;;;;;;;;;;5010908;28;20054;-77
2023/05/13 09:43:56;;;;;;;10.20;3.00;;;;;;;;;;5009413;28;20034;-79
2023/05/13 09:46:22;;;;;;;9.15;2.92;;;;;;;;;;4992981;28;20042;-76
2023/05/13 09:48:54;;;;;;;11.25;3.50;;;;;;;;;;5010547;28;20045;-77
2023/05/13 09:51:28;;;;;;;6.10;3.15;;;;;;;;;;5009225;28;20049;-76
2023/05/13 09:53:54;;;;;;;11.38;3.50;;;;;;;;;;5010145;28;20128;-78
2023/05/13 09:56:22;;;;;;;4.75;2.75;;;;;;;;;;4994029;28;20469;-78
2023/05/13 09:58:51;;;;;;;8.98;3.72;;;;;;;;;;5011624;28;20057;-78
2023/05/13 10:01:18;;;;;;;14.60;4.13;;;;;;;;;;5009368;28;20041;-76
2023/05/13 10:03:44;;;;;;;4.95;3.20;;;;;;;;;;4992850;28;20030;-76
2023/05/13 10:06:10;;;;;;;6.85;3.40;;;;;;;;;;5009979;28;20037;-76
2023/05/13 10:08:37;;;;;;;7.28;3.10;;;;;;;;;;5009051;28;20412;-76
2023/05/13 10:11:03;;;;;;;5.57;3.00;;;;;;;;;;5010176;28;20117;-76
2023/05/13 10:13:29;;;;;;;11.23;3.60;;;;;;;;;;5008920;28;20073;-76
2023/05/13 10:15:55;;;;;;;8.35;3.40;;;;;;;;;;5008712;28;20065;-76
2023/05/13 10:18:22;;;;;;;3.70;2.50;;;;;;;;;;4992323;28;20030;-76
2023/05/13 10:20:51;;;;;;;3.20;2.90;;;;;;;;;;5010327;28;20060;-75
2023/05/13 10:23:21;;;;;;;5.80;2.72;;;;;;;;;;5013819;28;20064;-77
2023/05/13 10:25:47;;;;;;;8.70;3.33;;;;;;;;;;5012588;28;20033;-75
2023/05/13 10:28:13;;;;;;;6.13;3.25;;;;;;;;;;5013453;28;20196;-77
2023/05/13 10:30:39;;;;;;;7.45;3.30;;;;;;;;;;5013627;28;20520;-75
2023/05/13 10:33:05;;;;;;;4.75;3.33;;;;;;;;;;4996124;28;20070;-76
2023/05/13 10:35:33;;;;;;;3.95;3.42;;;;;;;;;;4996062;28;20033;-76
2023/05/13 10:38:05;;;;;;;4.53;3.42;;;;;;;;;;5012144;28;20084;-76
2023/05/13 10:40:48;;;;;;;8.48;3.97;;;;;;;;;;5012171;28;20038;-75
2023/05/13 10:43:15;;;;;;;7.70;3.95;;;;;;;;;;5013195;28;20480;-76
2023/05/13 10:45:48;;;;;;;6.03;3.45;;;;;;;;;;5013323;28;20121;-76
2023/05/13 10:48:17;;;;;;;8.27;3.38;;;;;;;;;;4979680;28;20038;-76
2023/05/13 10:51:07;;;;;;;12.18;3.90;;;;;;;;;;5013555;28;20065;-76
2023/05/13 10:53:43;;;;;;;5.13;4.15;;;;;;;;;;5011703;28;20530;-76
2023/05/13 10:56:09;;;;;;;7.38;3.72;;;;;;;;;;4995605;28;20056;-75
2023/05/13 10:58:38;;;;;;;3.35;3.05;;;;;;;;;;5011799;28;20504;-76
2023/05/13 11:01:31;;;;;;;7.00;4.75;;;;;;;;;;5011424;28;20080;-76
2023/05/13 11:04:01;;;;;;;8.05;3.30;;;;;;;;;;5010100;28;20038;-76
2023/05/13 11:06:40;;;;;;;2.88;2.67;;;;;;;;;;4995377;28;20045;-76
2023/05/13 11:09:06;;;;;;;9.00;2.80;;;;;;;;;;4995119;28;20076;-75
2023/05/13 11:11:33;;;;;;;4.60;2.90;;;;;;;;;;5012894;28;20029;-75
2023/05/13 11:13:59;;;;;;;3.70;3.13;;;;;;;;;;5012685;28;20049;-75
2023/05/13 11:16:26;;;;;;;4.95;2.60;;;;;;;;;;5011535;28;20530;-75
2023/05/13 11:18:52;;;;;;;2.83;2.63;;;;;;;;;;4994914;28;20457;-76
2023/05/13 11:21:28;;;;;;;4.88;2.75;;;;;;;;;;5012449;28;20047;-76
2023/05/13 11:23:58;;;;;;;6.05;2.88;;;;;;;;;;5011117;28;20405;-75
2023/05/13 11:26:24;;;;;;;8.85;3.17;;;;;;;;;;5011073;28;20042;-76
2023/05/13 11:29:03;;;;;;;2.75;2.55;;;;;;;;;;5012715;28;20048;-75
2023/05/13 11:31:40;;;;;;;6.30;2.60;;;;;;;;;;5012603;28;20033;-75
2023/05/13 11:34:10;;;;;;;7.90;2.50;;;;;;;;;;5012197;28;20456;-76
2023/05/13 11:36:37;;;;;;;4.05;2.72;;;;;;;;;;5014448;28;20038;-76
2023/05/13 11:39:07;;;;;;;4.68;2.63;;;;;;;;;;5023872;28;20500;-75
2023/05/13 11:41:33;;;;;;;7.15;2.95;;;;;;;;;;5021462;28;20050;-76
2023/05/13 11:44:02;;;;;;;8.57;2.83;;;;;;;;;;5012386;28;20030;-76
2023/05/13 11:46:28;;;;;;;6.95;3.00;;;;;;;;;;5012249;28;20502;-75
2023/05/13 11:48:54;;;;;;;4.85;3.10;;;;;;;;;;5011765;28;20037;-76
2023/05/13 11:51:20;;;;;;;6.38;2.92;;;;;;;;;;5012314;28;20104;-76
2023/05/13 11:53:46;;;;;;;5.47;3.05;;;;;;;;;;4994667;28;20076;-77
2023/05/13 11:56:12;;;;;;;4.03;2.70;;;;;;;;;;4994598;28;20040;-77
2023/05/13 11:58:38;;;;;;;5.88;3.13;;;;;;;;;;4994670;28;20659;-76
2023/05/13 12:01:04;;;;;;;12.18;3.22;;;;;;;;;;5013500;28;20030;-76
2023/05/13 12:03:30;;;;;;;8.35;2.75;;;;;;;;;;5012090;28;20037;-77
2023/05/13 12:06:00;;;;;;;8.65;3.13;;;;;;;;;;5011972;28;20029;-77
2023/05/13 12:08:26;;;;;;;;;;;;;;;;;;5011119;28;20041;-76
2023/05/13 12:10:52;;;;;;;5.78;3.28;;;;;;;;;;5012013;28;19913;-77
2023/05/13 12:13:18;;;;;;;12.40;3.88;;;;;;;;;;5010003;28;20033;-77
2023/05/13 12:15:45;;;;;;;6.18;3.45;;;;;;;;;;5010090;28;20050;-77
2023/05/13 12:18:11;;;;;;;8.27;2.88;;;;;;;;;;5011139;28;20073;-76
2023/05/13 12:20:37;;;;;;;3.85;2.70;;;;;;;;;;5010283;28;20314;-77
2023/05/13 12:23:04;;;;;;;13.60;3.22;;;;;;;;;;5011056;28;20315;-78
2023/05/13 12:25:43;;;;;;;5.05;3.05;;;;;;;;;;5010178;28;20091;-77
2023/05/13 12:28:10;;;;;;;7.15;2.80;;;;;;;;;;5010020;28;20050;-78
2023/05/13 12:30:37;;;;;;;4.55;3.05;;;;;;;;;;5010075;28;20080;-78
2023/05/13 12:33:05;;;;;;;5.97;2.60;;;;;;;;;;5009692;28;20070;-76
2023/05/13 12:35:31;;;;;;;3.72;3.17;;;;;;;;;;5011231;28;20125;-77
2023/05/13 12:38:01;;;;;;;6.40;3.47;;;;;;;;;;5009615;28;20041;-77
2023/05/13 12:40:27;;;;;;;5.73;3.13;;;;;;;;;;5011320;28;20085;-76
2023/05/13 12:42:59;;;;;;;7.60;3.90;;;;;;;;;;5010540;28;20460;-77
2023/05/13 12:45:32;;;;;;;11.93;3.97;;;;;;;;;;5010958;28;20504;-77
2023/05/13 12:47:58;;;;;;;3.65;2.50;;;;;;;;;;4993695;28;20052;-77
2023/05/13 12:50:24;;;;;;;5.30;2.70;;;;;;;;;;4995087;28;20029;-77
2023/05/13 12:52:51;;;;;;;5.25;2.70;;;;;;;;;;5010954;28;20041;-76
2023/05/13 12:55:17;;;;;;;6.10;2.80;;;;;;;;;;5010885;28;20037;-77
2023/05/13 12:57:43;;;;;;;4.20;2.50;;;;;;;;;;5010596;28;20504;-77
2023/05/13 13:00:09;;;;;;;3.97;2.80;;;;;;;;;;5009370;28;20037;-77
2023/05/13 13:02:37;;;;;;;9.15;2.83;;;;;;;;;;5010822;28;20173;-74
2023/05/13 13:05:04;;;;;;;5.40;2.60;;;;;;;;;;5010654;28;20041;-77
2023/05/13 13:07:30;;;;;;;5.22;3.00;;;;;;;;;;5010684;28;20042;-77
2023/05/13 13:09:56;;;;;;;5.15;3.00;;;;;;;;;;5009788;28;20041;-77
2023/05/13 13:12:22;;;;;;;4.22;2.70;;;;;;;;;;5010439;28;20034;-77
2023/05/13 13:14:51;;;;;;;6.03;2.70;;;;;;;;;;5010814;28;20133;-76
2023/05/13 13:17:17;;;;;;;6.20;2.70;;;;;;;;;;5009324;28;20061;-77
2023/05/13 13:19:43;;;;;;;4.47;2.65;;;;;;;;;;4993552;28;20030;-77
2023/05/13 13:22:09;;;;;;;6.35;2.67;;;;;;;;;;5010524;28;20040;-78
2023/05/13 13:24:35;;;;;;;7.10;2.70;;;;;;;;;;5009598;28;20026;-78
2023/05/13 13:27:01;;;;;;;4.78;3.20;;;;;;;;;;5010450;28;20046;-77
2023/05/13 13:29:27;;;;;;;7.18;3.63;;;;;;;;;;5010540;28;20511;-77
2023/05/13 13:31:53;;;;;;;6.35;3.00;;;;;;;;;;4993379;28;20531;-77
2023/05/13 13:34:19;;;;;;;5.85;2.67;;;;;;;;;;5011072;28;20040;-76
2023/05/13 13:36:45;;;;;;;9.38;2.60;;;;;;;;;;4993312;28;20532;-76
2023/05/13 13:39:12;;;;;;;6.80;3.15;;;;;;;;;;5010266;28;20030;-77
2023/05/13 13:41:39;;;;;;;3.22;2.50;;;;;;;;;;5009138;28;20050;-77
2023/05/13 13:44:05;;;;;;;5.40;2.70;;;;;;;;;;5010308;28;20061;-77
2023/05/13 13:46:31;;;;;;;4.13;2.95;;;;;;;;;;5009593;28;20077;-77
2023/05/13 13:48:57;;;;;;;2.80;2.60;;;;;;;;;;5009711;28;20471;-77
2023/05/13 13:51:23;;;;;;;3.78;2.50;;;;;;;;;;4997120;28;20420;-76
2023/05/13 13:53:49;;;;;;;3.53;3.10;;;;;;;;;;5024536;28;20049;-77
2023/05/13 13:56:15;;;;;;;7.22;3.97;;;;;;;;;;5029815;28;20032;-77
2023/05/13 13:58:42;;;;;;;3.30;3.00;;;;;;;;;;5033065;28;20073;-76
2023/05/13 14:01:08;;;;;;;3.70;2.70;;;;;;;;;;5029453;28;20536;-76
2023/05/13 14:03:34;;;;;;;5.72;2.70;;;;;;;;;;5015697;28;20059;-77
2023/05/13 14:06:00;;;;;;;5.57;2.95;;;;;;;;;;4997884;28;20575;-76
2023/05/13 14:08:26;;;;;;;7.68;2.80;;;;;;;;;;5013101;28;20057;-75
2023/05/13 14:10:52;;;;;;;7.25;2.67;;;;;;;;;;5013106;28;20060;-77
2023/05/13 14:13:19;;;;;;;13.95;2.80;;;;;;;;;;5013915;28;20049;-77
2023/05/13 14:15:45;;;;;;;4.35;2.78;;;;;;;;;;5015151;28;20030;-76
2023/05/13 14:18:11;;;;;;;4.78;3.17;;;;;;;;;;5014447;28;20500;-76
2023/05/13 14:20:38;;;;;;;5.30;2.90;;;;;;;;;;4998007;28;20037;-77
2023/05/13 14:23:03;;;;;;;5.30;3.13;;;;;;;;;;5013994;28;20076;-77
2023/05/13 14:25:29;;;;;;;11.48;3.20;;;;;;;;;;4996934;28;20038;-77
2023/05/13 14:27:55;;;;;;;6.60;2.78;;;;;;;;;;5015840;28;20042;-77
2023/05/13 14:30:21;;;;;;;9.20;2.53;;;;;;;;;;5013927;28;20038;-77
2023/05/13 14:32:47;;;;;;;7.53;3.47;;;;;;;;;;5013356;28;20040;-76
2023/05/13 14:35:17;;;;;;;3.45;2.83;;;;;;;;;;4996835;28;20616;-77
2023/05/13 14:37:43;;;;;;;4.47;2.75;;;;;;;;;;5015025;28;20503;-77
2023/05/13 14:40:09;;;;;;;4.35;2.80;;;;;;;;;;5016926;28;20034;-76
2023/05/13 14:42:35;;;;;;;4.60;2.72;;;;;;;;;;5007836;28;20060;-76